createdAt,value
2022-09-28T00:01:09.289Z,99241.53
2022-09-28T00:03:36.957Z,99233.59
2022-09-28T00:06:08.939Z,99227.66
2022-09-28T00:08:36.707Z,99231.78
2022-09-28T00:11:05.073Z,99222.91
2022-09-28T00:13:33.248Z,99222.66
2022-09-28T00:16:17.262Z,99227.91
2022-09-28T00:18:45.608Z,99231.16
2022-09-28T00:21:17.518Z,99228.88
2022-09-28T00:24:03.369Z,99227.53
2022-09-28T00:26:32.041Z,99228.00
2022-09-28T00:29:00.886Z,99225.94
2022-09-28T00:31:30.259Z,99232.97
2022-09-28T00:33:57.449Z,99226.19
2022-09-28T00:36:24.691Z,99221.66
2022-09-28T00:38:52.312Z,99230.53
2022-09-28T00:41:19.091Z,99228.00
2022-09-28T00:43:45.995Z,99233.59
2022-09-28T00:46:18.233Z,99247.19
2022-09-28T00:48:55.323Z,99235.06
2022-09-28T00:51:24.051Z,99236.66
2022-09-28T00:53:51.147Z,99216.56
2022-09-28T00:56:20.603Z,99237.84
2022-09-28T00:58:50.426Z,99231.66
2022-09-28T01:01:17.513Z,99235.31
2022-09-28T01:03:48.717Z,99239.56
2022-09-28T01:06:20.278Z,99241.25
2022-09-28T01:08:50.482Z,99241.72
2022-09-28T01:11:18.812Z,99235.62
2022-09-28T01:13:47.094Z,99234.91
2022-09-28T01:16:16.989Z,99251.19
2022-09-28T01:19:01.856Z,99245.25
2022-09-28T01:21:28.627Z,99249.88
2022-09-28T01:24:24.680Z,99254.72
2022-09-28T01:27:06.368Z,99257.28
2022-09-28T01:30:12.319Z,99256.41
2022-09-28T01:32:54.670Z,99262.81
2022-09-28T01:35:31.357Z,99263.56
2022-09-28T01:38:19.601Z,99262.97
2022-09-28T01:40:47.389Z,99260.63
2022-09-28T01:43:17.993Z,99273.09
2022-09-28T01:45:50.977Z,99273.47
2022-09-28T01:48:29.485Z,99270.66
2022-09-28T01:50:59.588Z,99268.13
2022-09-28T01:53:33.215Z,99269.47
2022-09-28T01:56:04.856Z,99266.75
2022-09-28T01:58:39.525Z,99272.25
2022-09-28T02:01:18.293Z,99273.00
2022-09-28T02:04:01.172Z,99275.44
2022-09-28T02:06:38.856Z,99272.75
2022-09-28T02:09:11.632Z,99286.13
2022-09-28T02:11:43.010Z,99287.78
2022-09-28T02:14:11.849Z,99287.44
2022-09-28T02:16:42.436Z,99277.22
2022-09-28T02:19:12.977Z,99281.56
2022-09-28T02:21:54.980Z,99274.88
2022-09-28T02:24:34.169Z,99275.34
2022-09-28T02:27:06.779Z,99283.25
2022-09-28T02:29:33.535Z,99288.97
2022-09-28T02:32:00.421Z,99286.69
2022-09-28T02:34:27.264Z,99287.34
2022-09-28T02:36:54.254Z,99299.22
2022-09-28T02:39:20.982Z,99298.13
2022-09-28T02:41:59.785Z,99284.78
2022-09-28T02:44:40.065Z,99293.88
2022-09-28T02:47:39.107Z,99297.28
2022-09-28T02:50:20.846Z,99283.31
2022-09-28T02:53:05.550Z,99280.12
2022-09-28T02:55:43.588Z,99284.25
2022-09-28T02:58:19.307Z,99286.59
2022-09-28T03:01:15.445Z,99284.87
2022-09-28T03:03:55.595Z,99288.75
2022-09-28T03:06:27.538Z,99305.31
2022-09-28T03:09:03.355Z,99307.00
2022-09-28T03:11:53.039Z,99311.12
2022-09-28T03:14:21.242Z,99302.13
2022-09-28T03:16:48.091Z,99299.44
2022-09-28T03:19:17.028Z,99290.91
2022-09-28T03:21:43.923Z,99287.97
2022-09-28T03:24:11.208Z,99270.13
2022-09-28T03:26:38.957Z,99276.41
2022-09-28T03:29:06.008Z,99289.22
2022-09-28T03:31:32.838Z,99298.31
2022-09-28T03:33:59.762Z,99295.88
2022-09-28T03:36:26.569Z,99290.53
2022-09-28T03:38:56.532Z,99288.06
2022-09-28T03:41:27.814Z,99293.31
2022-09-28T03:43:54.923Z,99299.75
2022-09-28T03:46:21.886Z,99307.41
2022-09-28T03:48:48.920Z,99305.59
2022-09-28T03:51:15.754Z,99305.81
2022-09-28T03:53:42.627Z,99318.56
2022-09-28T03:56:14.172Z,99310.44
2022-09-28T03:58:41.080Z,99305.94
2022-09-28T04:01:16.625Z,99307.25
2022-09-28T04:03:44.031Z,99309.97
2022-09-28T04:06:11.305Z,99312.03
2022-09-28T04:08:38.552Z,99310.06
2022-09-28T04:11:05.601Z,99316.28
2022-09-28T04:13:32.791Z,99314.81
2022-09-28T04:16:01.334Z,99317.88
2022-09-28T04:18:29.291Z,99318.00
2022-09-28T04:21:22.211Z,99307.31
2022-09-28T04:23:49.286Z,99306.09
2022-09-28T04:26:19.861Z,99312.75
2022-09-28T04:29:06.927Z,99305.69
2022-09-28T04:31:38.985Z,99305.19
2022-09-28T04:34:05.842Z,99309.44
2022-09-28T04:36:32.702Z,99312.22
2022-09-28T04:39:00.143Z,99308.69
2022-09-28T04:41:29.135Z,99317.78
2022-09-28T04:43:57.264Z,99312.91
2022-09-28T04:46:24.127Z,99309.56
2022-09-28T04:48:51.063Z,99316.50
2022-09-28T04:51:17.942Z,99302.09
2022-09-28T04:53:44.729Z,99309.03
2022-09-28T04:56:13.559Z,99314.59
2022-09-28T04:58:41.024Z,99311.94
2022-09-28T05:01:12.170Z,99314.81
2022-09-28T05:03:39.459Z,99320.16
2022-09-28T05:06:09.325Z,99311.00
2022-09-28T05:08:36.257Z,99314.22
2022-09-28T05:11:05.073Z,99313.06
2022-09-28T05:13:33.262Z,99311.03
2022-09-28T05:16:05.070Z,99309.50
2022-09-28T05:18:32.782Z,99315.50
2022-09-28T05:20:59.835Z,99319.12
2022-09-28T05:23:26.657Z,99320.63
2022-09-28T05:25:53.585Z,99331.81
2022-09-28T05:28:25.193Z,99326.03
2022-09-28T05:30:52.334Z,99321.97
2022-09-28T05:33:19.222Z,99314.94
2022-09-28T05:35:49.794Z,99319.91
2022-09-28T05:38:19.425Z,99319.28
2022-09-28T05:40:46.378Z,99331.41
2022-09-28T05:43:13.207Z,99325.44
2022-09-28T05:45:40.210Z,99316.50
2022-09-28T05:48:07.021Z,99308.84
2022-09-28T05:50:34.103Z,99305.41
2022-09-28T05:53:06.375Z,99317.25
2022-09-28T05:55:33.646Z,99278.78
2022-09-28T05:58:02.291Z,99280.31
2022-09-28T06:00:30.144Z,99273.34
2022-09-28T06:02:58.688Z,99282.25
2022-09-28T06:05:26.335Z,99279.38
2022-09-28T06:07:56.157Z,99268.00
2022-09-28T06:10:23.418Z,99268.94
2022-09-28T06:12:54.523Z,99274.50
2022-09-28T06:15:23.115Z,99271.97
2022-09-28T06:17:58.982Z,99272.72
2022-09-28T06:20:26.967Z,99258.94
2022-09-28T06:22:54.212Z,99269.09
2022-09-28T06:25:22.191Z,99268.28
2022-09-28T06:27:55.737Z,99261.31
2022-09-28T06:30:24.262Z,99266.50
2022-09-28T06:32:58.550Z,99258.91
2022-09-28T06:35:27.474Z,99255.09
2022-09-28T06:37:54.268Z,99256.53
2022-09-28T06:40:21.543Z,99248.91
2022-09-28T06:42:59.334Z,99256.41
2022-09-28T06:45:27.867Z,99260.38
2022-09-28T06:48:01.266Z,99253.09
2022-09-28T06:50:34.688Z,99243.69
2022-09-28T06:53:01.851Z,99245.94
2022-09-28T06:55:28.933Z,99256.41
2022-09-28T06:58:06.658Z,99253.13
2022-09-28T07:00:35.341Z,99252.09
2022-09-28T07:03:04.009Z,99250.53
2022-09-28T07:05:34.551Z,99245.78
2022-09-28T07:08:02.054Z,99239.03
2022-09-28T07:10:30.404Z,99235.28
2022-09-28T07:12:58.132Z,99216.09
2022-09-28T07:15:25.412Z,99241.19
2022-09-28T07:18:02.839Z,99240.75
2022-09-28T07:20:41.217Z,99240.72
2022-09-28T07:23:19.377Z,99235.06
2022-09-28T07:25:49.615Z,99180.97
2022-09-28T07:28:17.398Z,99228.94
2022-09-28T07:30:44.694Z,99230.41
2022-09-28T07:33:14.554Z,99222.13
2022-09-28T07:35:42.496Z,99233.97
2022-09-28T07:38:10.602Z,99225.31
2022-09-28T07:40:55.876Z,99236.59
2022-09-28T07:43:22.693Z,99229.69
2022-09-28T07:45:52.411Z,99205.56
2022-09-28T07:48:20.115Z,99224.53
2022-09-28T07:50:55.137Z,99221.13
2022-09-28T07:53:23.610Z,99209.37
2022-09-28T07:56:02.012Z,99175.72
2022-09-28T07:58:29.346Z,99189.09
2022-09-28T08:00:56.285Z,99213.41
2022-09-28T08:03:23.038Z,99206.34
2022-09-28T08:05:49.958Z,99200.78
2022-09-28T08:08:16.909Z,99139.00
2022-09-28T08:10:46.978Z,99195.50
2022-09-28T08:13:15.277Z,99183.31
2022-09-28T08:15:42.639Z,99188.59
2022-09-28T08:18:10.230Z,99182.62
2022-09-28T08:20:55.673Z,99178.28
2022-09-28T08:23:23.545Z,99179.78
2022-09-28T08:25:52.736Z,99193.97
2022-09-28T08:28:22.637Z,99178.31
2022-09-28T08:30:50.182Z,99178.69
2022-09-28T08:33:20.406Z,99189.16
2022-09-28T08:35:48.276Z,99203.63
2022-09-28T08:38:15.339Z,99191.69
2022-09-28T08:41:05.577Z,99167.47
2022-09-28T08:43:39.447Z,99175.63
2022-09-28T08:46:07.026Z,99172.25
2022-09-28T08:48:51.756Z,99153.47
2022-09-28T08:51:29.332Z,99158.69
2022-09-28T08:54:00.968Z,99174.38
2022-09-28T08:56:32.036Z,99147.81
2022-09-28T08:59:03.806Z,99157.16
2022-09-28T09:01:38.655Z,99177.97
2022-09-28T09:04:06.628Z,99170.56
2022-09-28T09:06:51.007Z,99155.72
2022-09-28T09:09:36.224Z,99192.63
2022-09-28T09:12:14.319Z,99152.41
2022-09-28T09:15:04.938Z,99155.09
2022-09-28T09:18:22.369Z,99163.28
2022-09-28T09:21:01.406Z,99194.16
2022-09-28T09:23:39.461Z,99168.16
2022-09-28T09:26:21.732Z,99165.06
2022-09-28T09:29:08.536Z,99175.78
2022-09-28T09:32:04.358Z,99184.31
2022-09-28T09:34:42.946Z,99168.41
2022-09-28T09:37:21.537Z,99143.38
2022-09-28T09:40:11.024Z,99149.41
2022-09-28T09:42:43.735Z,99151.22
2022-09-28T09:45:30.549Z,99148.59
2022-09-28T09:48:03.543Z,99157.44
2022-09-28T09:50:30.638Z,99148.16
2022-09-28T09:53:27.102Z,99138.75
2022-09-28T09:55:57.429Z,99124.91
2022-09-28T09:58:48.000Z,99138.34
2022-09-28T10:01:18.564Z,99142.41
2022-09-28T10:03:48.193Z,99125.06
2022-09-28T10:06:21.153Z,99131.69
2022-09-28T10:09:11.339Z,99121.88
2022-09-28T10:11:46.811Z,99124.19
2022-09-28T10:14:20.075Z,99142.56
2022-09-28T10:16:48.571Z,99127.78
2022-09-28T10:19:17.533Z,99142.56
2022-09-28T10:21:46.880Z,99121.44
2022-09-28T10:24:35.310Z,99135.91
2022-09-28T10:27:18.437Z,99122.13
2022-09-28T10:29:55.602Z,99140.81
2022-09-28T10:32:36.771Z,99130.38
2022-09-28T10:35:12.827Z,99118.66
2022-09-28T10:37:57.903Z,99164.44
2022-09-28T10:40:40.858Z,99157.22
2022-09-28T10:43:23.509Z,99166.06
2022-09-28T10:46:11.299Z,99154.56
2022-09-28T10:48:48.952Z,99170.84
2022-09-28T10:51:16.609Z,99156.09
2022-09-28T10:53:58.765Z,99161.63
2022-09-28T10:56:29.278Z,99155.56
2022-09-28T10:58:56.091Z,99150.53
2022-09-28T11:01:26.770Z,99138.06
2022-09-28T11:04:00.033Z,99126.81
2022-09-28T11:06:29.121Z,99135.03
2022-09-28T11:08:58.669Z,99139.16
2022-09-28T11:11:25.636Z,99129.28
2022-09-28T11:14:01.124Z,99136.16
2022-09-28T11:16:33.079Z,99123.28
2022-09-28T11:19:20.669Z,99139.75
2022-09-28T11:21:47.478Z,99123.00
2022-09-28T11:24:23.093Z,99137.16
2022-09-28T11:26:56.554Z,99124.78
2022-09-28T11:29:44.065Z,99144.56
2022-09-28T11:32:15.005Z,99109.81
2022-09-28T11:34:59.130Z,99111.94
2022-09-28T11:38:04.023Z,99105.69
2022-09-28T11:41:24.632Z,99121.59
2022-09-28T11:43:54.145Z,99108.38
2022-09-28T11:46:33.090Z,99098.59
2022-09-28T11:49:07.065Z,99087.88
2022-09-28T11:51:36.479Z,99106.34
2022-09-28T11:54:14.401Z,99083.06
2022-09-28T11:56:47.990Z,99075.56
2022-09-28T11:59:16.043Z,99094.19
2022-09-28T12:01:51.811Z,99089.94
2022-09-28T12:04:26.719Z,99092.28
2022-09-28T12:06:59.105Z,99089.53
2022-09-28T12:10:10.391Z,99077.22
2022-09-28T12:12:45.689Z,99086.66
2022-09-28T12:15:18.798Z,99091.69
2022-09-28T12:17:50.719Z,99081.47
2022-09-28T12:20:25.044Z,99098.06
2022-09-28T12:23:25.946Z,99065.47
2022-09-28T12:26:02.037Z,99059.78
2022-09-28T12:28:28.823Z,99067.16
2022-09-28T12:30:58.409Z,99064.94
2022-09-28T12:33:25.234Z,99073.66
2022-09-28T12:36:15.151Z,99071.84
2022-09-28T12:39:21.712Z,99065.31
2022-09-28T12:42:00.009Z,99073.13
2022-09-28T12:44:57.159Z,99055.63
2022-09-28T12:47:41.357Z,99046.84
2022-09-28T12:50:54.520Z,99053.81
2022-09-28T12:53:31.159Z,99062.81
2022-09-28T12:55:57.946Z,99066.50
2022-09-28T12:59:09.088Z,99050.88
2022-09-28T13:01:49.994Z,99046.19
2022-09-28T13:04:44.042Z,99051.59
2022-09-28T13:07:50.704Z,99052.31
2022-09-28T13:10:17.494Z,99004.44
2022-09-28T13:13:07.685Z,99015.16
2022-09-28T13:15:36.693Z,99018.72
2022-09-28T13:18:11.022Z,99028.25
2022-09-28T13:20:43.980Z,99037.41
2022-09-28T13:23:23.917Z,99035.25
2022-09-28T13:26:17.935Z,99030.16
2022-09-28T13:28:47.027Z,99029.44
2022-09-28T13:31:19.144Z,99026.56
2022-09-28T13:33:46.722Z,99037.88
2022-09-28T13:36:26.221Z,99033.16
2022-09-28T13:38:57.013Z,99045.00
2022-09-28T13:41:32.217Z,99034.84
2022-09-28T13:44:11.581Z,99028.09
2022-09-28T13:46:55.081Z,99043.13
2022-09-28T13:49:27.697Z,99052.09
2022-09-28T13:52:12.589Z,99053.12
2022-09-28T13:54:57.684Z,99033.34
2022-09-28T13:57:31.762Z,99034.88
2022-09-28T14:00:08.462Z,99040.69
2022-09-28T14:02:48.500Z,99027.50
2022-09-28T14:05:27.045Z,99049.53
2022-09-28T14:08:08.907Z,99056.81
2022-09-28T14:10:55.894Z,99055.34
2022-09-28T14:13:40.872Z,99057.88
2022-09-28T14:16:27.513Z,99057.53
2022-09-28T14:19:09.249Z,99056.84
2022-09-28T14:21:54.227Z,99061.59
2022-09-28T14:24:55.573Z,99070.75
2022-09-28T14:27:51.720Z,99069.97
2022-09-28T14:30:24.924Z,99066.75
2022-09-28T14:32:59.876Z,99064.09
2022-09-28T14:35:43.511Z,99053.09
2022-09-28T14:38:38.612Z,99062.56
2022-09-28T14:41:13.753Z,99052.25
2022-09-28T14:43:46.571Z,99052.38
2022-09-28T14:46:19.743Z,99045.63
2022-09-28T14:48:52.769Z,99042.94
2022-09-28T14:51:33.081Z,99045.97
2022-09-28T14:54:02.424Z,99045.09
2022-09-28T14:56:32.887Z,99050.16
2022-09-28T14:59:00.317Z,99043.22
2022-09-28T15:01:27.878Z,99041.69
2022-09-28T15:03:57.296Z,99043.22
2022-09-28T15:06:24.535Z,99045.97
2022-09-28T15:08:51.546Z,99045.31
2022-09-28T15:11:21.199Z,99037.72
2022-09-28T15:13:48.138Z,99043.09
2022-09-28T15:16:17.090Z,99041.91
2022-09-28T15:18:56.247Z,99058.16
2022-09-28T15:21:24.041Z,99060.19
2022-09-28T15:23:50.993Z,99070.19
2022-09-28T15:26:27.469Z,99070.69
2022-09-28T15:28:54.801Z,99065.25
2022-09-28T15:31:24.361Z,99072.19
2022-09-28T15:34:10.191Z,99062.72
2022-09-28T15:36:41.766Z,99070.16
2022-09-28T15:39:20.598Z,99078.25
2022-09-28T15:41:49.097Z,99078.44
2022-09-28T15:44:15.973Z,99076.56
2022-09-28T15:46:51.978Z,99073.50
2022-09-28T15:49:26.965Z,99072.97
2022-09-28T15:51:56.147Z,99085.31
2022-09-28T15:54:35.221Z,99094.06
2022-09-28T15:57:02.900Z,99095.44
2022-09-28T15:59:38.209Z,99103.50
2022-09-28T16:02:18.111Z,99107.75
2022-09-28T16:04:56.016Z,99113.81
2022-09-28T16:07:33.776Z,99111.13
2022-09-28T16:10:12.831Z,99109.72
2022-09-28T16:12:46.195Z,99104.63
2022-09-28T16:15:21.125Z,99118.91
2022-09-28T16:17:56.983Z,99114.88
2022-09-28T16:20:34.110Z,99125.94
2022-09-28T16:23:08.509Z,99127.16
2022-09-28T16:25:37.453Z,99128.88
2022-09-28T16:28:04.908Z,99132.56
2022-09-28T16:30:33.732Z,99133.53
2022-09-28T16:33:03.073Z,99122.69
2022-09-28T16:35:40.941Z,99130.13
2022-09-28T16:38:15.852Z,99128.91
2022-09-28T16:40:44.265Z,99130.25
2022-09-28T16:43:20.315Z,99126.03
2022-09-28T16:45:47.103Z,99139.50
2022-09-28T16:48:16.434Z,99129.22
2022-09-28T16:50:45.147Z,99134.75
2022-09-28T16:53:33.866Z,99128.31
2022-09-28T16:56:02.030Z,99131.16
2022-09-28T16:58:31.201Z,99135.03
2022-09-28T17:00:58.793Z,99135.53
2022-09-28T17:03:26.725Z,99136.69
2022-09-28T17:05:55.123Z,99135.31
2022-09-28T17:08:24.118Z,99132.53
2022-09-28T17:11:18.054Z,99148.34
2022-09-28T17:13:46.594Z,99153.91
2022-09-28T17:16:28.186Z,99163.50
2022-09-28T17:19:26.873Z,99166.31
2022-09-28T17:21:54.415Z,99161.16
2022-09-28T17:24:21.422Z,99144.62
2022-09-28T17:26:50.254Z,99158.16
2022-09-28T17:29:18.595Z,99155.44
2022-09-28T17:31:46.483Z,99152.31
2022-09-28T17:34:16.099Z,99094.84
2022-09-28T17:36:43.807Z,99137.47
2022-09-28T17:39:15.264Z,99143.06
2022-09-28T17:41:42.271Z,99141.06
2022-09-28T17:44:09.165Z,99141.91
2022-09-28T17:46:40.831Z,99141.50
2022-09-28T17:49:10.620Z,99144.66
2022-09-28T17:51:37.703Z,99159.69
2022-09-28T17:54:06.078Z,99169.75
2022-09-28T17:56:32.940Z,99169.53
2022-09-28T17:59:08.280Z,99180.09
2022-09-28T18:01:38.813Z,99170.31
2022-09-28T18:04:08.075Z,99163.06
2022-09-28T18:06:39.421Z,99147.50
2022-09-28T18:09:06.317Z,99154.97
2022-09-28T18:11:33.782Z,99154.44
2022-09-28T18:14:00.849Z,99157.28
2022-09-28T18:16:28.888Z,99145.72
2022-09-28T18:18:55.976Z,99162.00
2022-09-28T18:21:22.809Z,99184.22
2022-09-28T18:23:49.570Z,99171.03
2022-09-28T18:26:19.005Z,99173.81
2022-09-28T18:28:46.631Z,99186.34
2022-09-28T18:31:15.149Z,99203.78
2022-09-28T18:33:42.045Z,99187.66
2022-09-28T18:36:08.985Z,99185.87
2022-09-28T18:38:36.719Z,99170.28
2022-09-28T18:41:21.848Z,99165.09
2022-09-28T18:43:49.937Z,99171.25
2022-09-28T18:46:20.306Z,99167.16
2022-09-28T18:48:47.799Z,99144.03
2022-09-28T18:51:15.202Z,99156.22
2022-09-28T18:53:42.142Z,99158.38
2022-09-28T18:56:11.088Z,99162.75
2022-09-28T18:58:39.501Z,99170.81
2022-09-28T19:01:28.580Z,99186.72
2022-09-28T19:03:55.259Z,99185.31
2022-09-28T19:06:22.303Z,99191.69
2022-09-28T19:08:53.371Z,99198.34
2022-09-28T19:11:21.568Z,99194.69
2022-09-28T19:13:48.480Z,99188.47
2022-09-28T19:16:25.095Z,99188.72
2022-09-28T19:18:53.734Z,99187.44
2022-09-28T19:21:22.716Z,99186.19
2022-09-28T19:23:50.111Z,99188.44
2022-09-28T19:26:20.880Z,99194.41
2022-09-28T19:28:48.320Z,99204.88
2022-09-28T19:31:15.597Z,99202.44
2022-09-28T19:33:42.368Z,99201.88
2022-09-28T19:36:12.165Z,99203.00
2022-09-28T19:38:39.920Z,99203.16
2022-09-28T19:41:10.695Z,99196.94
2022-09-28T19:43:38.303Z,99201.72
2022-09-28T19:46:06.617Z,99197.06
2022-09-28T19:48:34.375Z,99188.16
2022-09-28T19:51:06.220Z,99184.06
2022-09-28T19:53:37.849Z,99190.72
2022-09-28T19:56:05.595Z,99186.75
2022-09-28T19:58:36.596Z,99190.00
2022-09-28T20:01:07.182Z,99188.84
2022-09-28T20:03:34.815Z,99175.12
2022-09-28T20:06:02.055Z,99184.75
2022-09-28T20:08:32.065Z,99191.81
2022-09-28T20:10:59.856Z,99187.56
2022-09-28T20:13:31.919Z,99184.47
2022-09-28T20:16:10.167Z,99186.16
2022-09-28T20:18:39.014Z,99188.56
2022-09-28T20:21:10.606Z,99193.41
2022-09-28T20:23:37.514Z,99186.31
2022-09-28T20:26:05.301Z,99191.25
2022-09-28T20:28:33.371Z,99185.59
2022-09-28T20:31:38.102Z,99184.19
2022-09-28T20:34:05.829Z,99188.16
2022-09-28T20:36:33.213Z,99187.44
2022-09-28T20:39:04.041Z,99179.94
2022-09-28T20:41:35.662Z,99187.31
2022-09-28T20:44:05.568Z,99176.13
2022-09-28T20:46:35.945Z,99180.78
2022-09-28T20:49:03.941Z,99172.00
2022-09-28T20:51:30.964Z,99179.25
2022-09-28T20:53:58.996Z,99175.84
2022-09-28T20:56:31.570Z,99181.09
2022-09-28T20:58:58.450Z,99181.09
2022-09-28T21:01:30.482Z,99173.16
2022-09-28T21:04:02.083Z,99168.47
2022-09-28T21:06:33.707Z,99155.75
2022-09-28T21:09:01.269Z,99165.06
2022-09-28T21:11:29.790Z,99164.34
2022-09-28T21:13:58.951Z,99163.66
2022-09-28T21:16:27.855Z,99164.22
2022-09-28T21:18:54.856Z,99161.56
2022-09-28T21:21:23.098Z,99160.09
2022-09-28T21:23:56.987Z,99166.59
2022-09-28T21:26:26.691Z,99156.28
2022-09-28T21:28:58.792Z,99155.44
2022-09-28T21:31:29.185Z,99146.66
2022-09-28T21:33:57.432Z,99149.78
2022-09-28T21:36:24.764Z,99145.13
2022-09-28T21:38:52.355Z,99148.50
2022-09-28T21:41:19.141Z,99140.31
2022-09-28T21:43:45.928Z,99134.78
2022-09-28T21:46:13.094Z,99142.00
2022-09-28T21:48:41.898Z,99141.56
2022-09-28T21:51:13.551Z,99138.31
2022-09-28T21:53:41.578Z,99150.34
2022-09-28T21:56:12.363Z,99155.87
2022-09-28T21:58:40.817Z,99151.75
2022-09-28T22:01:15.820Z,99159.00
2022-09-28T22:03:45.446Z,99156.00
2022-09-28T22:06:14.560Z,99152.59
2022-09-28T22:08:41.862Z,99161.28
2022-09-28T22:11:11.702Z,99139.44
2022-09-28T22:13:47.151Z,99142.69
2022-09-28T22:16:15.682Z,99132.09
2022-09-28T22:18:43.157Z,99136.91
2022-09-28T22:21:15.394Z,99131.97
2022-09-28T22:23:42.203Z,99136.62
2022-09-28T22:26:25.981Z,99136.34
2022-09-28T22:29:00.440Z,99130.84
2022-09-28T22:31:30.375Z,99130.69
2022-09-28T22:33:58.094Z,99130.84
2022-09-28T22:36:25.947Z,99138.63
2022-09-28T22:38:54.214Z,99120.50
2022-09-28T22:41:21.236Z,99124.91
2022-09-28T22:43:49.704Z,99130.84
2022-09-28T22:46:21.937Z,99122.78
2022-09-28T22:48:51.218Z,99128.84
2022-09-28T22:51:18.719Z,99130.69
2022-09-28T22:53:45.695Z,99129.41
2022-09-28T22:56:18.181Z,99130.97
2022-09-28T22:58:45.759Z,99130.69
2022-09-28T23:01:15.082Z,99131.97
2022-09-28T23:03:42.610Z,99128.41
2022-09-28T23:06:10.950Z,99120.94
2022-09-28T23:08:38.356Z,99118.09
2022-09-28T23:11:06.162Z,99125.88
2022-09-28T23:13:33.218Z,99107.22
2022-09-28T23:16:05.641Z,99123.19
2022-09-28T23:18:35.014Z,99111.88
2022-09-28T23:21:04.320Z,99117.53
2022-09-28T23:23:33.279Z,99124.34
2022-09-28T23:26:01.569Z,99122.50
2022-09-28T23:28:29.373Z,99116.09
2022-09-28T23:30:56.653Z,99125.47
2022-09-28T23:33:23.710Z,99127.03
2022-09-28T23:35:51.121Z,99126.44
2022-09-28T23:38:18.454Z,99116.84
2022-09-28T23:40:46.740Z,99120.22
2022-09-28T23:43:14.351Z,99117.41
2022-09-28T23:45:43.881Z,99115.13
2022-09-28T23:48:11.743Z,99119.22
2022-09-28T23:50:38.553Z,99114.84
2022-09-28T23:53:05.718Z,99112.44
2022-09-28T23:55:33.081Z,99113.16
2022-09-28T23:57:59.885Z,99109.47
